EGGW Airport Information

Runway Information
Runway 08 Length 7086 ft width 151 ft
Elevation 515 ft Threshold 0 ft Heading 74
Runway 26 Length 7086 ft Width 151 ft
Elevation 508 ft Threshold 279 ft Heading 254
Airport Frequencies
Type APP Name APP Frequency 129.55 MHZ
Type ATIS Name ATIS Frequency 120.575 MHZ
Type GND Name GND Frequency 121.75 MHZ
Type TWR Name TWR Frequency 132.55 MHZ
Airport Navaids
Airport Weather Information & NOTAM
ADDS - METARS form results

(1759 UTC 18 July 2018)
 
METAR text: EGGW 181750Z AUTO VRB02KT 9999 NCD 23/08 Q1018
Conditions at: EGGW (LUTON AIRPORT , GB) observed 1750 UTC 18 July 2018
Temperature: 23.0°C (73°F)
Dewpoint: 8.0°C (46°F) [RH = 38%]
Pressure (altimeter): 30.06 inches Hg (1018.0 mb)
Winds: variable direction winds at 2 MPH (2 knots; 1.0 m/s)
Visibility: 6 or more miles (10+ km)
Ceiling: at least 12,000 feet AGL
Clouds: sky clear below 12,000 feet AGL
Weather: no significant weather observed at this time

METAR text: EGGW 181720Z AUTO 10003KT 9999 NCD 23/08 Q1018
Conditions at: EGGW (LUTON AIRPORT , GB) observed 1720 UTC 18 July 2018
Temperature: 23.0°C (73°F)
Dewpoint: 8.0°C (46°F) [RH = 38%]
Pressure (altimeter): 30.06 inches Hg (1018.0 mb)
Winds: from the E (100 degrees) at 3 MPH (3 knots; 1.6 m/s)
Visibility: 6 or more miles (10+ km)
Ceiling: at least 12,000 feet AGL
Clouds: sky clear below 12,000 feet AGL
Weather: no significant weather observed at this time